Wagon Wheel Gap, Colorado
Current Conditions -  °F | °C
As of 1:30 AM on Sunday 23 Nov 2014 (Local Time) from KRCV Reporting Station
Clear Clear  
Wind Chill: 25°   Ceiling: Unl
Heat Index: 33°   Visibility: 10mi
Dew Point: 20°   Wind: 10mph
Humidity: 59%   Direction: 290°WNW
Pressure: 29.72"   Gusts: 17mph
Location:  37.6617°N, 106.617°W
Report Text: KRCV 230830Z AUTO 29009G15KT 10SM CLR 01/M07 A2972 RMK AO2 T00061067
Loading
Personal Weather Stations






























Interactive Weather Map New forecast layout! Learn more

10-Day Weather Forecast

Advertisements
Track Severe Weather on mobile